Station info - map view · info · telemetry · weather · raw · status · beacons · messages · bulletins · browse · moving · my account
Callsign, ship name or locator: Clear       
It is possible to search using wildcards (*?) after a prefix. Example: OH*
APRS station K0SDT-9 - show graphs
Map loading...
Comment: 445.875MHz Toff -500
Mic-E message: In service
Location: 41°18.62' N 105°35.15' W - locator DN71EH94QL - show map - static map
497.4 yards East bearing 105° from Laramie, Albany County, Wyoming, United States [?]
39.2 miles West bearing 287° from Warren Air Force Base, Laramie County, Wyoming, United States
56.5 miles Northwest bearing 333° from Fort Collins, Larimer County, Colorado, United States
76.5 miles Northwest bearing 324° from Greeley, Weld County, Colorado, United States
Last position: 2019-04-15 10:01:33 EDT (7d 6h5m ago)
2019-04-15 08:01:33 MDT local time at Laramie, United States [?]
Altitude: 7067 ft
Course: 329°
Device: Yaesu: FTM-400DR (rig)
Last path: K0SDT-9>T1QXVR via WALDEN*,WIDE1*,WERNER*,WIDE2*,qAR,CEDAR (good)
Positions stored: 11121
Other SSIDs: K0SDT K0SDT-1 K0SDT-2 K0SDT-N
Stations near current position of K0SDT-9 - show more
callsign distance last heard - EDT      callsign distance last heard - EDT
K0SDT-N502.4 yards 284°2019-04-12 19:55:57 146.6100.4 miles 30°2019-04-22 14:21:20
FW10941.1 miles 12°2019-04-22 02:00:08 EW36011.4 miles 37°2019-04-22 16:04:54
WS7C-61.9 miles 143°2019-03-31 16:24:29 WB7VTT-92.6 miles 111°2019-04-22 08:53:46
146.820WY8.1 miles 103°2019-04-22 16:04:30 N7JJY-48.4 miles 110°2019-04-22 15:44:22
FW444917.2 miles 236°2019-04-22 16:00:06 WB7BKM25.0 miles 241°2019-04-22 15:45:41
WB7BKM-825.0 miles 241°2019-04-22 00:36:43 N7UW-125.1 miles 234°2019-04-22 14:21:15
WY7ATH-227.3 miles 97°2019-04-22 14:12:06
Stations which heard K0SDT-9 directly on radio –
callsign pkts first heard - EDT last heard longest (tx => rx) longest at - EDT
KD7GIZ-10 2 2019-04-12 18:07:33 2019-04-12 18:08:47 DN40DR > DN31XF 38.9 miles 330° 2019-04-12 18:08:47
SKYLIN 33 2019-04-02 18:47:11 2019-04-12 16:32:52 DM38SU > DM49GI 63.3 miles 58° 2019-04-02 19:42:25
N7ZEV-3 9 2019-04-02 23:08:29 2019-04-11 20:29:08 DM26US > DM26FH 76.8 miles 246° 2019-04-02 23:08:29
N7ZEV-1 290 2019-04-02 23:19:29 2019-04-11 21:34:25 DM26RQ > DM25GV 76.9 miles 225° 2019-04-02 23:19:29
VEGAS 264 2019-04-02 21:32:28 2019-04-12 00:11:35 DM37GD > DM25FX 139.5 miles 234° 2019-04-12 00:11:35
SHEPRD 23 2019-04-02 15:06:58 2019-04-12 20:18:28 DN41OG > DN41BA 56.4 miles 253° 2019-04-12 20:18:28
KF6RAL-13 80 2019-04-02 21:05:27 2019-04-12 00:36:32 DM37JN > DM36FT 53.5 miles 200° 2019-04-02 21:05:27
KK7DO-1 3 2019-04-02 17:27:25 2019-04-12 16:51:06 DM49CW > DN31TP 121.1 miles 346° 2019-04-12 16:51:06
N7ZEF 37 2019-04-02 11:51:53 2019-04-12 23:10:32 DN61NR > DN61KS 13.7 miles 281° 2019-04-02 11:51:53
KF6RAL-4 9 2019-04-02 21:34:26 2019-04-11 23:57:39 DM36EX > DM37NO 60.4 miles 46° 2019-04-11 23:57:39
WA7FFM-1 69 2019-04-02 18:03:42 2019-04-12 17:25:53 DM49BQ > DN40DI 47.3 miles 8° 2019-04-02 18:50:53
KE7GHK-4 1 2019-04-02 17:26:26 2019-04-02 17:26:26 DN40ER > DN40BQ 13.4 miles 258° 2019-04-02 17:26:26
KB6RKS 6 2019-04-02 18:41:15 2019-04-12 16:46:31 DM49BU > DM49GL 30.9 miles 144° 2019-04-12 16:46:31
REDSPR 17 2019-04-02 15:13:04 2019-04-12 20:29:19 DN40FR > DN41HP 62.7 miles 5° 2019-04-12 18:44:28
AL7BX 41 2019-04-02 20:48:55 2019-04-12 14:38:43 DM37JL > DM37KR 16.9 miles 24° 2019-04-02 21:08:25
KC7OZU-5 20 2019-04-02 11:43:24 2019-04-12 23:20:34 DN61QR > DN61JS 30.6 miles 275° 2019-04-12 23:20:34
KF6RAL-2 27 2019-04-02 17:25:25 2019-04-12 18:11:36 DN40ES > DN30XO 24.1 miles 248° 2019-04-02 17:25:25
KF6RAL-7 3 2019-04-12 16:23:53 2019-04-12 16:27:23 DM49AL > DN40OI 87.9 miles 46° 2019-04-12 16:23:53
FRISCO 76 2019-04-02 19:13:27 2019-04-12 16:14:23 DM39WH > DM38IM 84.7 miles 230° 2019-04-12 16:14:23
KB7STN-3 47 2019-04-02 17:34:45 2019-04-12 18:01:38 DN40CR > DN30XL 19.6 miles 219° 2019-04-02 17:34:45
KD7KCN-5 8 2019-04-02 22:24:23 2019-04-12 00:29:32 DM37JK > DM27VJ 52.0 miles 268° 2019-04-12 00:29:32
REDKNL 2 2019-04-02 21:09:57 2019-04-02 21:16:57 DM37JL > DM37QD 38.9 miles 124° 2019-04-02 21:09:57
N7UW-1 2 2019-04-02 10:37:58 2019-04-02 16:15:56 DN71EH > DN71AC 23.7 miles 232° 2019-04-02 16:15:56
WALDEN 35 2019-04-02 10:47:59 2019-04-13 00:15:29 DN61RS > DN60XL 91.5 miles 165° 2019-04-12 23:26:31
KF6RAL-10 49 2019-04-02 14:30:14 2019-04-12 20:59:52 DN51BN > DN41DR 94.7 miles 278° 2019-04-12 20:59:52
KF6RAL-1 38 2019-04-02 17:40:27 2019-04-12 17:28:56 DM49BP > DN40AG 43.2 miles 357° 2019-04-02 18:53:24
N6LXX-1 4 2019-04-11 17:51:07 2019-04-11 19:06:30 DM25LW > DM15RC 102.6 miles 236° 2019-04-11 18:00:55
NG6K-10 16 2019-04-02 18:00:42 2019-04-12 17:27:24 DM49CW > DN40CK 33.6 miles 5° 2019-04-02 18:35:15
N7BYU-1 12 2019-04-02 18:16:41 2019-04-12 17:06:54 DM49BP > DN40EF 44.4 miles 18° 2019-04-12 16:33:23
BEAVER-2 31 2019-04-02 19:21:54 2019-04-02 20:47:55 DM39VE > DM38QH 65.5 miles 201° 2019-04-02 19:21:54
KU5R-6 5 2019-04-02 17:38:46 2019-04-12 17:56:39 DN40CP > DN30SO 34.6 miles 267° 2019-04-12 17:56:39
AE7AF 3 2019-04-02 10:54:17 2019-04-13 00:09:40 DN61UO > DN72LB 68.8 miles 63° 2019-04-02 11:23:22
N7JJY-5 2 2019-04-02 11:14:07 2019-04-12 23:51:09 DN61XM > DN72PA 79.1 miles 63° 2019-04-02 11:14:07
N7JJY-6 5 2019-04-02 11:18:37 2019-04-12 23:38:51 DN61UP > DN72QU 120.5 miles 46° 2019-04-02 11:26:53
WB7BKM-13 5 2019-04-02 10:36:39 2019-04-02 11:08:49 DN71EI > DN61XD 23.8 miles 231° 2019-04-02 10:52:19
KI7AKG 5 2019-04-02 16:54:19 2019-04-12 18:42:35 DN40ES > DN40IP 20.5 miles 113° 2019-04-02 17:24:58

Only position packets which were originated by the station are shown here. The range statistics show some extra long hops, because some digipeaters do not correctly add themselves to the digipeater path. Please check the raw packets.
About this site
This page shows real-time information collected from the Automatic Position Reporting System Internet network (APRS-IS). APRS is used by amateur (ham) radio operators to transmit real-time position information, weather data, telemetry and messages over the radio. A vehicle equipped with a GPS receiver, a VHF transmitter or HF transceiver and a small computer device called a tracker transmits it's location, speed and course in a small data packet, which is then received by a nearby iGate receiving site which forwards the packet on the Internet. Systems connected to the Internet can send information on the APRS-IS without a radio transmitter, or collect and display information transmitted anywhere in the world.
FAQ · Blog · Discussion group · Linking to aprs.fi · AIS sites · Service status · Database statistics · Advertising on aprs.fi · Technical details · API · Change log · Planned changes · Credits and thanks · Terms Of Service · iPhone/iPad APRS